createdAt,value
2017-11-05T00:00:46.054Z,82.00
2017-11-05T00:03:13.677Z,82.00
2017-11-05T00:05:41.296Z,81.90
2017-11-05T00:08:09.713Z,83.60
2017-11-05T00:10:37.330Z,83.60
2017-11-05T00:13:04.991Z,83.40
2017-11-05T00:15:32.606Z,83.60
2017-11-05T00:18:00.227Z,84.50
2017-11-05T00:20:27.874Z,83.90
2017-11-05T00:22:56.271Z,83.10
2017-11-05T00:25:23.930Z,82.90
2017-11-05T00:27:51.559Z,83.50
2017-11-05T00:30:19.190Z,83.50
2017-11-05T00:32:47.618Z,83.50
2017-11-05T00:35:15.241Z,83.40
2017-11-05T00:37:42.970Z,83.70
2017-11-05T00:40:10.610Z,83.70
2017-11-05T00:42:38.222Z,84.20
2017-11-05T00:45:05.878Z,84.90
2017-11-05T00:47:33.505Z,85.30
2017-11-05T00:50:01.162Z,84.90
2017-11-05T00:52:28.786Z,85.50
2017-11-05T00:54:56.403Z,86.20
2017-11-05T00:57:24.063Z,86.20
2017-11-05T00:59:51.687Z,86.20
2017-11-05T01:02:19.358Z,86.00
2017-11-05T01:04:46.987Z,85.50
2017-11-05T01:07:14.705Z,85.50
2017-11-05T01:09:43.170Z,85.10
2017-11-05T01:12:11.546Z,84.90
2017-11-05T01:14:39.205Z,84.80
2017-11-05T01:17:06.828Z,84.20
2017-11-05T01:19:35.215Z,85.00
2017-11-05T01:22:02.871Z,85.00
2017-11-05T01:24:30.494Z,85.00
2017-11-05T01:26:58.138Z,85.20
2017-11-05T01:29:26.536Z,84.50
2017-11-05T01:31:54.158Z,84.50
2017-11-05T01:34:21.808Z,84.70
2017-11-05T01:36:49.482Z,84.70
2017-11-05T01:39:17.139Z,84.00
2017-11-05T01:41:44.769Z,83.90
2017-11-05T01:44:12.387Z,83.80
2017-11-05T01:46:40.031Z,83.70
2017-11-05T01:49:07.656Z,84.00
2017-11-05T01:51:36.079Z,83.30
2017-11-05T01:54:03.698Z,83.20
2017-11-05T01:56:31.331Z,83.30
2017-11-05T01:59:05.603Z,83.80
2017-11-05T02:01:33.227Z,83.80
2017-11-05T02:04:00.877Z,83.70
2017-11-05T02:06:29.891Z,83.40
2017-11-05T02:08:58.377Z,83.20
2017-11-05T02:11:26.033Z,83.10
2017-11-05T02:13:53.670Z,83.40
2017-11-05T02:16:21.316Z,82.80
2017-11-05T02:18:48.938Z,83.00
2017-11-05T02:21:16.567Z,82.80
2017-11-05T02:23:44.225Z,82.70
2017-11-05T02:26:11.850Z,82.40
2017-11-05T02:28:39.512Z,82.70
2017-11-05T02:31:07.136Z,83.20
2017-11-05T02:33:34.754Z,83.70
2017-11-05T02:36:02.400Z,84.10
2017-11-05T02:38:30.042Z,84.20
2017-11-05T02:40:57.698Z,83.90
2017-11-05T02:43:25.327Z,83.70
2017-11-05T02:45:52.947Z,83.70
2017-11-05T02:48:21.376Z,83.70
2017-11-05T02:50:48.985Z,83.60
2017-11-05T02:53:16.631Z,84.00
2017-11-05T02:55:44.242Z,84.30
2017-11-05T02:58:11.878Z,84.10
2017-11-05T03:00:39.530Z,84.20
2017-11-05T03:03:07.147Z,84.70
2017-11-05T03:05:34.814Z,84.80
2017-11-05T03:08:02.431Z,84.50
2017-11-05T03:10:30.049Z,84.70
2017-11-05T03:12:57.710Z,84.40
2017-11-05T03:15:25.338Z,85.00
2017-11-05T03:17:53.769Z,84.50
2017-11-05T03:20:21.382Z,84.50
2017-11-05T03:22:49.018Z,84.60
2017-11-05T03:25:16.676Z,84.80
2017-11-05T03:27:44.300Z,84.90
2017-11-05T03:30:11.952Z,84.60
2017-11-05T03:32:39.580Z,84.80
2017-11-05T03:35:07.969Z,84.80
2017-11-05T03:37:35.626Z,84.60
2017-11-05T03:40:03.252Z,84.70
2017-11-05T03:42:30.911Z,85.20
2017-11-05T03:44:58.539Z,85.10
2017-11-05T03:47:26.922Z,85.00
2017-11-05T03:49:54.598Z,85.00
2017-11-05T03:52:22.223Z,85.00
2017-11-05T03:54:49.870Z,84.40
2017-11-05T03:57:17.494Z,84.80
2017-11-05T03:59:45.130Z,85.00
2017-11-05T04:02:13.557Z,84.50
2017-11-05T04:04:41.186Z,84.50
2017-11-05T04:07:08.831Z,84.40
2017-11-05T04:09:36.465Z,84.40
2017-11-05T04:12:04.099Z,85.00
2017-11-05T04:14:31.768Z,85.40
2017-11-05T04:16:59.398Z,85.60
2017-11-05T04:19:27.051Z,85.30
2017-11-05T04:21:54.674Z,85.80
2017-11-05T04:24:22.299Z,85.40
2017-11-05T04:26:50.010Z,85.10
2017-11-05T04:29:17.631Z,85.30
2017-11-05T04:31:45.286Z,85.40
2017-11-05T04:34:12.911Z,85.40
2017-11-05T04:36:40.535Z,84.70
2017-11-05T04:39:09.021Z,85.40
2017-11-05T04:41:36.659Z,84.70
2017-11-05T04:44:05.085Z,85.60
2017-11-05T04:46:32.702Z,85.50
2017-11-05T04:49:00.317Z,85.70
2017-11-05T04:51:28.745Z,86.20
2017-11-05T04:53:56.374Z,86.20
2017-11-05T04:56:24.039Z,86.60
2017-11-05T04:58:51.658Z,86.90
2017-11-05T05:01:19.288Z,86.30
2017-11-05T05:03:46.941Z,86.40
2017-11-05T05:06:14.567Z,86.90
2017-11-05T05:08:42.225Z,86.90
2017-11-05T05:11:09.870Z,86.40
2017-11-05T05:13:37.495Z,87.00
2017-11-05T05:16:05.929Z,88.30
2017-11-05T05:18:33.568Z,88.30
2017-11-05T05:21:01.227Z,88.30
2017-11-05T05:23:28.861Z,88.70
2017-11-05T05:25:56.488Z,89.20
2017-11-05T05:28:24.195Z,89.70
2017-11-05T05:30:51.836Z,89.70
2017-11-05T05:33:20.251Z,89.60
2017-11-05T05:35:47.901Z,89.60
2017-11-05T05:38:15.522Z,89.40
2017-11-05T05:40:43.279Z,89.70
2017-11-05T05:43:10.931Z,90.20
2017-11-05T05:45:38.579Z,90.60
2017-11-05T05:48:06.253Z,90.50
2017-11-05T05:50:33.911Z,90.70
2017-11-05T05:53:01.582Z,90.30
2017-11-05T05:55:30.014Z,89.70
2017-11-05T05:57:57.674Z,89.70
2017-11-05T06:00:25.342Z,89.70
2017-11-05T06:02:52.987Z,89.30
2017-11-05T06:05:20.619Z,89.00
2017-11-05T06:07:48.243Z,88.70
2017-11-05T06:10:15.935Z,88.70
2017-11-05T06:12:44.429Z,88.70
2017-11-05T06:15:12.108Z,88.70
2017-11-05T06:17:39.802Z,88.80
2017-11-05T06:20:07.434Z,89.00
2017-11-05T06:22:35.062Z,88.50
2017-11-05T06:25:02.725Z,89.20
2017-11-05T06:27:31.122Z,88.30
2017-11-05T06:29:58.783Z,88.30
2017-11-05T06:32:26.434Z,88.10
2017-11-05T06:34:54.065Z,87.70
2017-11-05T06:37:21.719Z,87.70
2017-11-05T06:39:49.370Z,87.60
2017-11-05T06:42:16.986Z,86.50
2017-11-05T06:44:46.142Z,86.50
2017-11-05T06:47:13.883Z,85.80
2017-11-05T06:49:41.506Z,85.10
2017-11-05T06:52:09.179Z,85.30
2017-11-05T06:54:36.800Z,84.20
2017-11-05T06:57:04.439Z,84.20
2017-11-05T06:59:32.349Z,83.50
2017-11-05T07:02:00.783Z,81.70
2017-11-05T07:04:28.458Z,81.70
2017-11-05T07:06:56.876Z,79.70
2017-11-05T07:09:24.507Z,79.70
2017-11-05T07:11:52.165Z,79.60
2017-11-05T07:14:19.839Z,78.60
2017-11-05T07:16:47.495Z,78.40
2017-11-05T07:19:15.878Z,78.00
2017-11-05T07:21:44.280Z,77.90
2017-11-05T07:24:11.964Z,77.80
2017-11-05T07:26:39.609Z,77.70
2017-11-05T07:29:07.286Z,77.70
2017-11-05T07:31:35.700Z,78.00
2017-11-05T07:34:03.370Z,77.90
2017-11-05T07:36:31.034Z,77.60
2017-11-05T07:38:59.414Z,76.60
2017-11-05T07:41:27.333Z,76.60
2017-11-05T07:43:54.958Z,75.90
2017-11-05T07:46:22.574Z,75.70
2017-11-05T07:48:50.233Z,75.60
2017-11-05T07:51:18.057Z,74.50
2017-11-05T07:53:45.887Z,74.30
2017-11-05T07:56:14.300Z,73.20
2017-11-05T07:58:42.635Z,73.10
2017-11-05T08:01:10.310Z,72.70
2017-11-05T08:03:37.973Z,73.00
2017-11-05T08:06:05.667Z,74.40
2017-11-05T08:08:34.056Z,73.20
2017-11-05T08:11:01.698Z,73.20
2017-11-05T08:13:29.359Z,71.70
2017-11-05T08:15:56.973Z,70.30
2017-11-05T08:18:24.633Z,70.80
2017-11-05T08:20:52.286Z,70.40
2017-11-05T08:23:19.933Z,70.30
2017-11-05T08:25:47.597Z,69.80
2017-11-05T08:28:15.229Z,69.30
2017-11-05T08:30:42.886Z,69.70
2017-11-05T08:33:10.555Z,69.70
2017-11-05T08:35:38.175Z,70.60
2017-11-05T08:38:06.158Z,69.80
2017-11-05T08:40:33.811Z,68.50
2017-11-05T08:43:01.468Z,67.60
2017-11-05T08:45:29.095Z,67.80
2017-11-05T08:47:56.874Z,68.10
2017-11-05T08:50:25.317Z,65.90
2017-11-05T08:52:52.985Z,65.90
2017-11-05T08:55:21.402Z,65.30
2017-11-05T08:57:49.028Z,65.20
2017-11-05T09:00:16.648Z,64.00
2017-11-05T09:02:44.308Z,63.60
2017-11-05T09:05:11.974Z,64.80
2017-11-05T09:07:39.674Z,66.70
2017-11-05T09:10:07.352Z,68.20
2017-11-05T09:12:34.981Z,68.50
2017-11-05T09:15:03.404Z,69.40
2017-11-05T09:17:31.039Z,69.40
2017-11-05T09:19:58.725Z,69.40
2017-11-05T09:22:26.348Z,69.90
2017-11-05T09:24:53.988Z,69.50
2017-11-05T09:27:21.856Z,70.60
2017-11-05T09:29:49.507Z,70.00
2017-11-05T09:32:17.172Z,70.70
2017-11-05T09:34:45.572Z,70.90
2017-11-05T09:37:13.196Z,70.80
2017-11-05T09:39:41.627Z,70.50
2017-11-05T09:42:09.246Z,70.50
2017-11-05T09:44:36.946Z,70.50
2017-11-05T09:47:04.601Z,70.00
2017-11-05T09:49:32.251Z,69.70
2017-11-05T09:51:59.924Z,67.60
2017-11-05T09:54:27.552Z,69.00
2017-11-05T09:56:55.234Z,69.10
2017-11-05T09:59:22.862Z,68.80
2017-11-05T10:01:50.485Z,70.10
2017-11-05T10:04:18.153Z,70.10
2017-11-05T10:06:45.778Z,70.60
2017-11-05T10:09:13.442Z,70.50
2017-11-05T10:11:41.172Z,70.20
2017-11-05T10:14:08.803Z,70.80
2017-11-05T10:16:36.455Z,71.00
2017-11-05T10:19:04.088Z,71.40
2017-11-05T10:21:31.742Z,71.50
2017-11-05T10:24:00.174Z,72.60
2017-11-05T10:26:27.793Z,72.60
2017-11-05T10:28:55.447Z,72.90
2017-11-05T10:31:23.076Z,72.80
2017-11-05T10:33:50.754Z,71.90
2017-11-05T10:36:18.387Z,72.30
2017-11-05T10:38:46.011Z,71.40
2017-11-05T10:41:13.654Z,71.80
2017-11-05T10:43:41.288Z,71.60
2017-11-05T10:46:09.711Z,70.60
2017-11-05T10:48:37.338Z,70.50
2017-11-05T10:51:04.950Z,71.40
2017-11-05T10:53:33.369Z,71.40
2017-11-05T10:56:00.993Z,71.50
2017-11-05T10:58:28.642Z,71.40
2017-11-05T11:00:56.264Z,72.50
2017-11-05T11:03:23.878Z,73.10
2017-11-05T11:05:51.532Z,73.00
2017-11-05T11:08:19.918Z,71.40
2017-11-05T11:10:47.586Z,71.30
2017-11-05T11:13:15.287Z,71.70
2017-11-05T11:15:42.935Z,72.00
2017-11-05T11:18:11.359Z,72.20
2017-11-05T11:20:38.990Z,72.20
2017-11-05T11:23:06.650Z,71.10
2017-11-05T11:25:34.274Z,72.00
2017-11-05T11:28:01.901Z,71.60
2017-11-05T11:30:29.563Z,71.60
2017-11-05T11:32:57.187Z,71.20
2017-11-05T11:35:25.626Z,70.20
2017-11-05T11:37:53.248Z,70.20
2017-11-05T11:42:54.996Z,69.30
2017-11-05T11:45:22.625Z,69.70
2017-11-05T11:47:50.286Z,68.70
2017-11-05T11:50:17.918Z,68.20
2017-11-05T11:52:45.535Z,68.70
2017-11-05T11:55:13.199Z,68.00
2017-11-05T11:57:40.833Z,69.00
2017-11-05T12:00:08.482Z,69.20
2017-11-05T12:02:36.103Z,68.80
2017-11-05T12:05:03.844Z,68.30
2017-11-05T12:07:31.555Z,68.10
2017-11-05T12:09:59.179Z,68.90
2017-11-05T12:12:26.843Z,70.00
2017-11-05T12:14:54.474Z,68.90
2017-11-05T12:17:22.102Z,68.10
2017-11-05T12:19:51.208Z,67.90
2017-11-05T12:22:18.861Z,67.80
2017-11-05T12:24:46.523Z,68.10
2017-11-05T12:27:14.155Z,68.60
2017-11-05T12:29:41.774Z,68.00
2017-11-05T12:32:09.444Z,65.50
2017-11-05T12:34:37.066Z,63.90
2017-11-05T12:37:04.727Z,62.50
2017-11-05T12:39:32.361Z,63.00
2017-11-05T12:41:59.983Z,62.40
2017-11-05T12:44:28.518Z,64.10
2017-11-05T12:46:56.149Z,64.10
2017-11-05T12:49:23.807Z,65.00
2017-11-05T12:51:51.429Z,65.80
2017-11-05T12:54:19.058Z,65.80
2017-11-05T12:56:46.722Z,66.40
2017-11-05T12:59:14.346Z,66.80
2017-11-05T13:01:42.823Z,66.90
2017-11-05T13:04:10.499Z,66.90
2017-11-05T13:06:38.134Z,66.50
2017-11-05T13:09:05.806Z,66.90
2017-11-05T13:11:34.543Z,67.10
2017-11-05T13:14:02.313Z,67.60
2017-11-05T13:16:29.947Z,67.10
2017-11-05T13:18:57.580Z,67.70
2017-11-05T13:21:25.314Z,68.20
2017-11-05T13:23:52.960Z,68.00
2017-11-05T13:26:20.620Z,67.00
2017-11-05T13:28:48.266Z,67.60
2017-11-05T13:31:15.891Z,68.50
2017-11-05T13:33:44.358Z,69.30
2017-11-05T13:36:12.783Z,68.80
2017-11-05T13:38:40.544Z,68.70
2017-11-05T13:41:08.171Z,68.10
2017-11-05T13:43:35.801Z,67.70
2017-11-05T13:46:03.533Z,66.60
2017-11-05T13:48:31.918Z,66.30
2017-11-05T13:50:59.675Z,66.40
2017-11-05T13:53:27.334Z,67.40
2017-11-05T13:55:54.964Z,67.10
2017-11-05T13:58:22.628Z,66.00
2017-11-05T14:00:50.253Z,65.80
2017-11-05T14:03:17.919Z,66.30
2017-11-05T14:05:45.543Z,65.80
2017-11-05T14:08:13.166Z,66.60
2017-11-05T14:10:41.124Z,67.30
2017-11-05T14:13:08.763Z,66.90
2017-11-05T14:15:36.422Z,66.90
2017-11-05T14:18:04.822Z,67.20
2017-11-05T14:20:32.460Z,67.20
2017-11-05T14:23:00.131Z,66.90
2017-11-05T14:25:27.765Z,67.40
2017-11-05T14:27:55.427Z,68.00
2017-11-05T14:30:23.053Z,69.00
2017-11-05T14:32:50.694Z,69.20
2017-11-05T14:35:18.467Z,69.30
2017-11-05T14:37:46.118Z,69.40
2017-11-05T14:40:13.870Z,69.70
2017-11-05T14:42:42.503Z,70.00
2017-11-05T14:45:10.122Z,69.90
2017-11-05T14:47:38.582Z,71.90
2017-11-05T14:50:07.012Z,71.80
2017-11-05T14:52:34.684Z,71.80
2017-11-05T14:55:02.312Z,71.60
2017-11-05T14:57:29.944Z,71.50
2017-11-05T14:59:57.595Z,71.50
2017-11-05T15:02:25.317Z,71.80
2017-11-05T15:04:52.968Z,71.50
2017-11-05T15:07:20.586Z,71.80
2017-11-05T15:09:48.990Z,71.70
2017-11-05T15:14:50.670Z,71.80
2017-11-05T15:17:18.326Z,71.90
2017-11-05T15:19:45.953Z,72.10
2017-11-05T15:22:13.565Z,72.10
2017-11-05T15:24:41.230Z,72.30
2017-11-05T15:27:08.856Z,72.00
2017-11-05T15:29:36.526Z,72.10
2017-11-05T15:32:04.155Z,72.20
2017-11-05T15:34:31.793Z,72.30
2017-11-05T15:36:59.446Z,71.30
2017-11-05T15:39:27.099Z,71.40
2017-11-05T15:41:54.763Z,71.30
2017-11-05T15:44:22.396Z,71.20
2017-11-05T15:46:50.016Z,71.20
2017-11-05T15:49:17.685Z,71.00
2017-11-05T15:51:45.315Z,71.30
2017-11-05T15:54:12.990Z,71.60
2017-11-05T15:56:40.638Z,72.10
2017-11-05T15:59:08.259Z,71.30
2017-11-05T16:01:35.910Z,70.90
2017-11-05T16:04:03.814Z,71.20
2017-11-05T16:06:31.482Z,71.60
2017-11-05T16:08:59.871Z,71.20
2017-11-05T16:11:27.502Z,71.20
2017-11-05T16:13:55.160Z,71.10
2017-11-05T16:16:22.803Z,71.40
2017-11-05T16:18:50.472Z,71.90
2017-11-05T16:21:18.108Z,71.10
2017-11-05T16:23:45.727Z,71.20
2017-11-05T16:26:14.166Z,71.30
2017-11-05T16:28:41.801Z,71.20
2017-11-05T16:31:09.465Z,71.30
2017-11-05T16:33:37.235Z,71.20
2017-11-05T16:36:04.901Z,72.20
2017-11-05T16:38:32.803Z,72.50
2017-11-05T16:41:00.433Z,72.30
2017-11-05T16:43:28.105Z,72.60
2017-11-05T16:45:55.731Z,71.90
2017-11-05T16:48:23.351Z,71.60
2017-11-05T16:50:51.003Z,71.30
2017-11-05T16:53:18.624Z,71.90
2017-11-05T16:55:46.290Z,71.50
2017-11-05T16:58:13.923Z,71.40
2017-11-05T17:00:41.543Z,71.80
2017-11-05T17:03:09.449Z,71.40
2017-11-05T17:05:37.104Z,72.50
2017-11-05T17:08:04.763Z,71.30
2017-11-05T17:10:32.398Z,71.60
2017-11-05T17:13:00.041Z,70.90
2017-11-05T17:15:27.703Z,70.90
2017-11-05T17:17:55.334Z,70.80
2017-11-05T17:20:22.989Z,70.60
2017-11-05T17:22:50.622Z,70.70
2017-11-05T17:25:18.242Z,71.40
2017-11-05T17:27:45.897Z,73.20
2017-11-05T17:30:13.524Z,74.50
2017-11-05T17:32:41.178Z,76.70
2017-11-05T17:35:08.795Z,79.50
2017-11-05T17:37:36.428Z,81.70
2017-11-05T17:40:04.192Z,83.60
2017-11-05T17:42:32.612Z,87.70
2017-11-05T17:45:00.327Z,87.70
2017-11-05T17:47:27.958Z,89.70
2017-11-05T17:49:56.352Z,91.20
2017-11-05T17:52:24.050Z,91.20
2017-11-05T17:54:51.674Z,92.40
2017-11-05T17:57:19.341Z,95.80
2017-11-05T17:59:46.968Z,94.90
2017-11-05T18:02:14.586Z,94.70
2017-11-05T18:04:42.234Z,95.90
2017-11-05T18:07:09.869Z,97.50
2017-11-05T18:09:37.544Z,98.10
2017-11-05T18:12:05.194Z,98.00
2017-11-05T18:14:32.825Z,98.30
2017-11-05T18:17:00.771Z,99.30
2017-11-05T18:19:28.401Z,99.90
2017-11-05T18:21:56.083Z,99.90
2017-11-05T18:24:23.743Z,99.90
2017-11-05T18:26:51.368Z,99.90
2017-11-05T18:29:19.120Z,99.90
2017-11-05T18:31:46.749Z,99.90
2017-11-05T18:34:14.412Z,99.90
2017-11-05T18:36:42.042Z,99.90
2017-11-05T18:39:09.677Z,99.90
2017-11-05T18:41:37.585Z,99.90
2017-11-05T18:44:05.275Z,99.90
2017-11-05T18:46:32.954Z,99.90
2017-11-05T18:49:00.597Z,99.90
2017-11-05T18:51:28.243Z,99.90
2017-11-05T18:53:55.898Z,99.90
2017-11-05T18:56:23.546Z,99.90
2017-11-05T18:58:51.375Z,99.90
2017-11-05T19:01:19.005Z,99.90
2017-11-05T19:03:46.714Z,99.90
2017-11-05T19:06:14.406Z,99.90
2017-11-05T19:08:42.038Z,99.90
2017-11-05T19:11:10.559Z,99.90
2017-11-05T19:13:38.194Z,99.90
2017-11-05T19:16:06.102Z,99.90
2017-11-05T19:18:34.226Z,99.90
2017-11-05T19:21:01.955Z,99.90
2017-11-05T19:23:31.006Z,99.90
2017-11-05T19:25:58.908Z,99.90
2017-11-05T19:28:26.551Z,99.90
2017-11-05T19:30:54.219Z,99.90
2017-11-05T19:33:21.830Z,99.90
2017-11-05T19:35:49.473Z,99.90
2017-11-05T19:38:17.096Z,99.90
2017-11-05T19:40:44.706Z,99.90
2017-11-05T19:43:12.358Z,99.90
2017-11-05T19:45:40.002Z,99.90
2017-11-05T19:48:07.643Z,99.90
2017-11-05T19:50:35.310Z,99.90
2017-11-05T19:53:03.690Z,99.90
2017-11-05T19:55:31.335Z,99.90
2017-11-05T19:57:58.956Z,99.90
2017-11-05T20:00:27.419Z,99.90
2017-11-05T20:02:55.810Z,99.90
2017-11-05T20:05:23.427Z,99.90
2017-11-05T20:07:51.078Z,99.90
2017-11-05T20:10:19.462Z,99.90
2017-11-05T20:12:47.118Z,99.90
2017-11-05T20:15:14.744Z,99.90
2017-11-05T20:17:43.122Z,99.90
2017-11-05T20:20:10.772Z,99.90
2017-11-05T20:22:38.531Z,99.90
2017-11-05T20:25:06.182Z,99.90
2017-11-05T20:27:33.811Z,99.90
2017-11-05T20:30:01.423Z,99.90
2017-11-05T20:32:29.075Z,99.90
2017-11-05T20:34:57.474Z,99.90
2017-11-05T20:37:25.115Z,99.90
2017-11-05T20:39:52.744Z,99.90
2017-11-05T20:42:21.139Z,99.90
2017-11-05T20:44:48.852Z,99.90
2017-11-05T20:47:17.245Z,99.90
2017-11-05T20:49:44.891Z,99.90
2017-11-05T20:52:12.510Z,99.90
2017-11-05T20:54:40.890Z,99.90
2017-11-05T20:57:09.302Z,99.90
2017-11-05T20:59:36.914Z,99.90
2017-11-05T21:02:04.562Z,99.90
2017-11-05T21:04:32.247Z,99.90
2017-11-05T21:06:59.875Z,99.90
2017-11-05T21:09:28.262Z,99.90
2017-11-05T21:11:55.876Z,99.90
2017-11-05T21:14:23.528Z,99.90
2017-11-05T21:16:51.326Z,99.90
2017-11-05T21:19:18.977Z,99.90
2017-11-05T21:21:47.403Z,99.90
2017-11-05T21:24:15.018Z,99.90
2017-11-05T21:26:42.665Z,99.90
2017-11-05T21:29:10.277Z,99.90
2017-11-05T21:31:38.671Z,99.90
2017-11-05T21:34:06.426Z,99.90
2017-11-05T21:36:34.040Z,99.90
2017-11-05T21:39:02.458Z,99.90
2017-11-05T21:41:30.082Z,99.90
2017-11-05T21:43:57.690Z,99.90
2017-11-05T21:46:25.349Z,99.90
2017-11-05T21:48:53.732Z,99.90
2017-11-05T21:51:21.384Z,99.90
2017-11-05T21:53:48.991Z,99.90
2017-11-05T21:56:17.428Z,99.90
2017-11-05T21:58:45.074Z,99.90
2017-11-05T22:01:12.688Z,99.90
2017-11-05T22:03:40.650Z,99.90
2017-11-05T22:06:08.270Z,99.90
2017-11-05T22:08:36.896Z,99.90
2017-11-05T22:11:04.541Z,99.90
2017-11-05T22:13:32.939Z,99.90
2017-11-05T22:16:00.587Z,99.90
2017-11-05T22:18:28.210Z,99.90
2017-11-05T22:20:55.839Z,99.90
2017-11-05T22:23:24.369Z,99.90
2017-11-05T22:25:52.004Z,99.90
2017-11-05T22:28:19.653Z,99.90
2017-11-05T22:30:47.263Z,99.90
2017-11-05T22:33:14.883Z,99.90
2017-11-05T22:35:43.294Z,99.90
2017-11-05T22:38:10.917Z,99.90
2017-11-05T22:40:38.567Z,99.90
2017-11-05T22:43:06.192Z,99.90
2017-11-05T22:45:33.806Z,99.90
2017-11-05T22:48:01.462Z,99.90
2017-11-05T22:50:29.073Z,99.90
2017-11-05T22:52:56.729Z,99.90
2017-11-05T22:55:24.350Z,99.90
2017-11-05T22:57:51.955Z,99.90
2017-11-05T23:00:19.590Z,99.90
2017-11-05T23:02:47.240Z,99.90
2017-11-05T23:05:14.895Z,99.90
2017-11-05T23:07:42.506Z,99.90
2017-11-05T23:10:10.134Z,99.90
2017-11-05T23:12:37.795Z,99.90
2017-11-05T23:15:05.407Z,99.90
2017-11-05T23:17:33.052Z,99.90
2017-11-05T23:20:00.679Z,99.90
2017-11-05T23:22:29.080Z,99.90
2017-11-05T23:24:56.751Z,99.90
2017-11-05T23:27:24.378Z,99.90
2017-11-05T23:29:52.041Z,99.90
2017-11-05T23:32:19.663Z,99.90
2017-11-05T23:34:47.290Z,99.90
2017-11-05T23:37:14.953Z,99.90
2017-11-05T23:39:42.592Z,99.90
2017-11-05T23:42:10.254Z,99.90
2017-11-05T23:44:37.881Z,99.90
2017-11-05T23:47:05.515Z,99.90
2017-11-05T23:49:33.940Z,99.90
2017-11-05T23:52:01.576Z,99.90
2017-11-05T23:54:29.278Z,99.90
2017-11-05T23:56:57.707Z,99.90
2017-11-05T23:59:25.328Z,99.90
